createdAt,value
2023-03-02T00:00:10.325Z,17.27
2023-03-02T00:00:41.803Z,17.27
2023-03-02T00:01:13.213Z,17.27
2023-03-02T00:01:44.624Z,17.26
2023-03-02T00:02:16.132Z,17.25
2023-03-02T00:02:47.634Z,17.26
2023-03-02T00:03:19.076Z,17.25
2023-03-02T00:03:50.565Z,17.25
2023-03-02T00:04:22.012Z,17.25
2023-03-02T00:04:53.446Z,17.24
2023-03-02T00:05:24.841Z,17.24
2023-03-02T00:05:56.270Z,17.23
2023-03-02T00:06:27.702Z,17.23
2023-03-02T00:06:59.094Z,17.22
2023-03-02T00:07:30.486Z,17.22
2023-03-02T00:08:01.923Z,17.21
2023-03-02T00:08:33.327Z,17.21
2023-03-02T00:09:04.724Z,17.21
2023-03-02T00:09:36.130Z,17.22
2023-03-02T00:10:07.544Z,17.21
2023-03-02T00:10:38.931Z,17.21
2023-03-02T00:11:10.349Z,17.20
2023-03-02T00:11:41.739Z,17.19
2023-03-02T00:12:13.135Z,17.20
2023-03-02T00:12:44.562Z,17.20
2023-03-02T00:13:16.283Z,17.18
2023-03-02T00:13:47.694Z,17.18
2023-03-02T00:14:19.112Z,17.17
2023-03-02T00:14:50.524Z,17.19
2023-03-02T00:15:21.921Z,17.16
2023-03-02T00:15:53.393Z,17.16
2023-03-02T00:16:24.945Z,17.17
2023-03-02T00:16:56.386Z,17.16
2023-03-02T00:17:27.832Z,17.16
2023-03-02T00:17:59.264Z,17.16
2023-03-02T00:18:30.671Z,17.15
2023-03-02T00:19:02.094Z,17.15
2023-03-02T00:19:33.513Z,17.16
2023-03-02T00:20:04.981Z,17.14
2023-03-02T00:20:36.405Z,17.14
2023-03-02T00:21:07.842Z,17.14
2023-03-02T00:21:39.283Z,17.14
2023-03-02T00:22:11.268Z,17.14
2023-03-02T00:22:42.778Z,17.13
2023-03-02T00:23:14.176Z,17.13
2023-03-02T00:23:45.572Z,17.13
2023-03-02T00:24:16.973Z,17.11
2023-03-02T00:24:48.569Z,17.12
2023-03-02T00:25:20.012Z,17.12
2023-03-02T00:25:51.421Z,17.11
2023-03-02T00:26:22.835Z,17.11
2023-03-02T00:26:54.272Z,17.11
2023-03-02T00:27:25.688Z,17.10
2023-03-02T00:27:57.134Z,17.09
2023-03-02T00:28:28.543Z,17.09
2023-03-02T00:28:59.955Z,17.09
2023-03-02T00:29:31.465Z,17.09
2023-03-02T00:30:02.890Z,17.09
2023-03-02T00:30:34.298Z,17.09
2023-03-02T00:31:05.747Z,17.09
2023-03-02T00:31:37.195Z,17.08
2023-03-02T00:32:08.658Z,17.07
2023-03-02T00:32:40.131Z,17.06
2023-03-02T00:33:11.568Z,17.08
2023-03-02T00:33:42.987Z,17.07
2023-03-02T00:34:14.380Z,17.07
2023-03-02T00:34:45.774Z,17.07
2023-03-02T00:35:17.192Z,17.06
2023-03-02T00:35:48.610Z,17.05
2023-03-02T00:36:20.020Z,17.05
2023-03-02T00:36:51.444Z,17.04
2023-03-02T00:37:22.858Z,17.04
2023-03-02T00:37:54.271Z,17.04
2023-03-02T00:38:25.669Z,17.04
2023-03-02T00:38:57.070Z,17.03
2023-03-02T00:39:28.486Z,17.02
2023-03-02T00:39:59.892Z,17.03
2023-03-02T00:40:31.291Z,17.03
2023-03-02T00:41:02.702Z,17.02
2023-03-02T00:41:34.124Z,17.03
2023-03-02T00:42:05.517Z,17.02
2023-03-02T00:42:36.927Z,17.03
2023-03-02T00:43:08.331Z,17.00
2023-03-02T00:43:39.820Z,17.01
2023-03-02T00:44:11.211Z,17.01
2023-03-02T00:44:42.621Z,17.00
2023-03-02T00:45:14.062Z,16.99
2023-03-02T00:45:45.489Z,17.00
2023-03-02T00:46:17.020Z,16.99
2023-03-02T00:46:48.473Z,16.99
2023-03-02T00:47:19.878Z,16.99
2023-03-02T00:47:51.288Z,16.99
2023-03-02T00:48:22.705Z,16.99
2023-03-02T00:48:54.157Z,16.98
2023-03-02T00:49:25.571Z,16.98
2023-03-02T00:49:56.974Z,16.97
2023-03-02T00:50:28.364Z,16.98
2023-03-02T00:50:59.763Z,16.98
2023-03-02T00:51:31.174Z,16.96
2023-03-02T00:52:02.577Z,16.97
2023-03-02T00:52:33.997Z,16.96
2023-03-02T00:53:05.437Z,16.96
2023-03-02T00:53:36.867Z,16.96
2023-03-02T00:54:08.323Z,16.95
2023-03-02T00:54:39.729Z,16.95
2023-03-02T00:55:11.143Z,16.94
2023-03-02T00:55:42.557Z,16.95
2023-03-02T00:56:13.966Z,16.95
2023-03-02T00:56:45.361Z,16.95
2023-03-02T00:57:16.775Z,16.94
2023-03-02T00:57:48.192Z,16.94
2023-03-02T00:58:19.601Z,16.94
2023-03-02T00:58:51.003Z,16.93
2023-03-02T00:59:22.436Z,16.92
2023-03-02T00:59:53.854Z,16.92
2023-03-02T01:00:25.248Z,16.92
2023-03-02T01:00:56.668Z,16.91
2023-03-02T01:01:28.065Z,16.90
2023-03-02T01:01:59.504Z,16.92
2023-03-02T01:02:31.060Z,16.91
2023-03-02T01:03:02.538Z,16.90
2023-03-02T01:03:34.019Z,16.91
2023-03-02T01:04:05.458Z,16.90
2023-03-02T01:04:36.881Z,16.90
2023-03-02T01:05:08.287Z,16.90
2023-03-02T01:05:39.684Z,16.90
2023-03-02T01:06:11.090Z,16.89
2023-03-02T01:06:42.544Z,16.89
2023-03-02T01:07:13.959Z,16.89
2023-03-02T01:07:45.374Z,16.89
2023-03-02T01:08:16.802Z,16.88
2023-03-02T01:08:48.213Z,16.89
2023-03-02T01:09:19.631Z,16.88
2023-03-02T01:09:51.088Z,16.87
2023-03-02T01:10:22.502Z,16.87
2023-03-02T01:10:54.422Z,16.86
2023-03-02T01:11:25.902Z,16.85
2023-03-02T01:11:57.337Z,16.87
2023-03-02T01:12:28.759Z,16.86
2023-03-02T01:13:00.180Z,16.87
2023-03-02T01:13:31.589Z,16.87
2023-03-02T01:14:03.003Z,16.87
2023-03-02T01:14:34.438Z,16.87
2023-03-02T01:15:05.873Z,16.87
2023-03-02T01:15:37.277Z,16.87
2023-03-02T01:16:08.711Z,16.86
2023-03-02T01:16:40.144Z,16.86
2023-03-02T01:17:11.617Z,16.85
2023-03-02T01:17:43.048Z,16.84
2023-03-02T01:18:14.447Z,16.85
2023-03-02T01:18:45.836Z,16.84
2023-03-02T01:19:17.256Z,16.83
2023-03-02T01:19:48.675Z,16.83
2023-03-02T01:20:20.135Z,16.84
2023-03-02T01:20:51.554Z,16.83
2023-03-02T01:21:22.969Z,16.82
2023-03-02T01:21:54.363Z,16.81
2023-03-02T01:22:25.902Z,16.81
2023-03-02T01:22:57.300Z,16.81
2023-03-02T01:23:28.746Z,16.81
2023-03-02T01:24:00.155Z,16.82
2023-03-02T01:24:31.578Z,16.81
2023-03-02T01:25:02.997Z,16.81
2023-03-02T01:25:34.449Z,16.80
2023-03-02T01:26:05.840Z,16.79
2023-03-02T01:26:37.244Z,16.79
2023-03-02T01:27:08.631Z,16.80
2023-03-02T01:27:40.025Z,16.79
2023-03-02T01:28:11.434Z,16.79
2023-03-02T01:28:42.828Z,16.77
2023-03-02T01:29:14.238Z,16.79
2023-03-02T01:29:45.662Z,16.77
2023-03-02T01:30:17.079Z,16.79
2023-03-02T01:30:48.517Z,16.77
2023-03-02T01:31:19.947Z,16.77
2023-03-02T01:31:51.511Z,16.76
2023-03-02T01:32:23.133Z,16.75
2023-03-02T01:32:54.579Z,16.74
2023-03-02T01:33:25.989Z,16.75
2023-03-02T01:33:57.398Z,16.75
2023-03-02T01:34:28.800Z,16.74
2023-03-02T01:35:00.219Z,16.73
2023-03-02T01:35:31.661Z,16.73
2023-03-02T01:36:03.119Z,16.73
2023-03-02T01:36:34.899Z,16.73
2023-03-02T01:37:06.441Z,16.73
2023-03-02T01:37:37.876Z,16.73
2023-03-02T01:38:09.293Z,16.72
2023-03-02T01:38:40.828Z,16.72
2023-03-02T01:39:12.291Z,16.71
2023-03-02T01:39:43.706Z,16.72
2023-03-02T01:40:15.123Z,16.70
2023-03-02T01:40:46.524Z,16.71
2023-03-02T01:41:17.960Z,16.71
2023-03-02T01:41:49.352Z,16.70
2023-03-02T01:42:20.774Z,16.70
2023-03-02T01:42:52.221Z,16.71
2023-03-02T01:43:23.633Z,16.69
2023-03-02T01:43:55.044Z,16.69
2023-03-02T01:44:26.434Z,16.69
2023-03-02T01:44:57.833Z,16.69
2023-03-02T01:45:29.281Z,16.68
2023-03-02T01:46:00.695Z,16.68
2023-03-02T01:46:32.323Z,16.67
2023-03-02T01:47:03.928Z,16.67
2023-03-02T01:47:35.326Z,16.66
2023-03-02T01:48:06.768Z,16.66
2023-03-02T01:48:38.158Z,16.65
2023-03-02T01:49:09.572Z,16.66
2023-03-02T01:49:40.973Z,16.66
2023-03-02T01:50:12.366Z,16.65
2023-03-02T01:50:43.792Z,16.66
2023-03-02T01:51:15.199Z,16.66
2023-03-02T01:51:46.617Z,16.65
2023-03-02T01:52:18.028Z,16.65
2023-03-02T01:52:49.440Z,16.65
2023-03-02T01:53:20.883Z,16.64
2023-03-02T01:53:53.623Z,16.63
2023-03-02T01:54:25.985Z,16.62
2023-03-02T01:54:57.400Z,16.62
2023-03-02T01:55:28.785Z,16.64
2023-03-02T01:56:00.175Z,16.62
2023-03-02T01:56:31.788Z,16.62
2023-03-02T01:57:03.316Z,16.62
2023-03-02T01:57:34.705Z,16.63
2023-03-02T01:58:06.127Z,16.62
2023-03-02T01:58:37.547Z,16.63
2023-03-02T01:59:08.961Z,16.62
2023-03-02T01:59:40.376Z,16.62
2023-03-02T02:00:11.785Z,16.61
2023-03-02T02:00:43.226Z,16.63
2023-03-02T02:01:14.688Z,16.62
2023-03-02T02:01:46.116Z,16.62
2023-03-02T02:02:17.509Z,16.61
2023-03-02T02:02:48.940Z,16.61
2023-03-02T02:03:20.364Z,16.61
2023-03-02T02:03:51.845Z,16.62
2023-03-02T02:04:23.401Z,16.61
2023-03-02T02:04:54.868Z,16.61
2023-03-02T02:05:26.264Z,16.60
2023-03-02T02:05:57.673Z,16.60
2023-03-02T02:06:29.152Z,16.59
2023-03-02T02:07:00.670Z,16.60
2023-03-02T02:07:32.080Z,16.60
2023-03-02T02:08:03.523Z,16.60
2023-03-02T02:08:34.944Z,16.59
2023-03-02T02:09:06.361Z,16.58
2023-03-02T02:09:37.767Z,16.57
2023-03-02T02:10:09.168Z,16.58
2023-03-02T02:10:40.594Z,16.58
2023-03-02T02:11:12.007Z,16.58
2023-03-02T02:11:43.406Z,16.58
2023-03-02T02:12:14.759Z,16.58
2023-03-02T02:12:46.195Z,16.56
2023-03-02T02:13:17.638Z,16.57
2023-03-02T02:13:49.032Z,16.57
2023-03-02T02:14:20.497Z,16.56
2023-03-02T02:14:51.942Z,16.56
2023-03-02T02:15:23.338Z,16.55
2023-03-02T02:15:54.735Z,16.56
2023-03-02T02:16:26.197Z,16.56
2023-03-02T02:16:57.659Z,16.56
2023-03-02T02:17:29.106Z,16.55
2023-03-02T02:18:00.511Z,16.55
2023-03-02T02:18:31.932Z,16.55
2023-03-02T02:19:03.355Z,16.53
2023-03-02T02:19:34.773Z,16.54
2023-03-02T02:20:06.162Z,16.54
2023-03-02T02:20:37.567Z,16.53
2023-03-02T02:21:08.961Z,16.54
2023-03-02T02:21:40.377Z,16.54
2023-03-02T02:22:11.774Z,16.54
2023-03-02T02:22:43.189Z,16.53
2023-03-02T02:23:14.623Z,16.53
2023-03-02T02:23:46.042Z,16.53
2023-03-02T02:24:17.439Z,16.52
2023-03-02T02:24:48.838Z,16.52
2023-03-02T02:25:20.243Z,16.51
2023-03-02T02:25:51.642Z,16.52
2023-03-02T02:26:23.038Z,16.52
2023-03-02T02:26:54.433Z,16.51
2023-03-02T02:27:25.841Z,16.51
2023-03-02T02:27:57.236Z,16.51
2023-03-02T02:28:28.627Z,16.51
2023-03-02T02:29:00.035Z,16.51
2023-03-02T02:29:31.441Z,16.50
2023-03-02T02:30:02.895Z,16.50
2023-03-02T02:30:34.319Z,16.48
2023-03-02T02:31:05.734Z,16.50
2023-03-02T02:31:37.130Z,16.50
2023-03-02T02:32:08.718Z,16.49
2023-03-02T02:32:40.245Z,16.48
2023-03-02T02:33:11.663Z,16.47
2023-03-02T02:33:43.068Z,16.47
2023-03-02T02:34:14.506Z,16.46
2023-03-02T02:34:45.908Z,16.47
2023-03-02T02:35:17.350Z,16.47
2023-03-02T02:35:48.790Z,16.47
2023-03-02T02:36:20.220Z,16.47
2023-03-02T02:36:51.646Z,16.46
2023-03-02T02:37:23.053Z,16.47
2023-03-02T02:37:54.477Z,16.47
2023-03-02T02:38:25.881Z,16.48
2023-03-02T02:38:57.286Z,16.46
2023-03-02T02:39:28.719Z,16.46
2023-03-02T02:40:00.142Z,16.46
2023-03-02T02:40:31.582Z,16.45
2023-03-02T02:41:03.006Z,16.46
2023-03-02T02:41:34.437Z,16.45
2023-03-02T02:42:05.851Z,16.45
2023-03-02T02:42:37.263Z,16.45
2023-03-02T02:43:08.670Z,16.44
2023-03-02T02:43:40.122Z,16.44
2023-03-02T02:44:11.546Z,16.44
2023-03-02T02:44:42.939Z,16.44
2023-03-02T02:45:14.358Z,16.44
2023-03-02T02:45:45.877Z,16.43
2023-03-02T02:46:17.441Z,16.43
2023-03-02T02:46:48.899Z,16.44
2023-03-02T02:47:20.291Z,16.42
2023-03-02T02:47:51.688Z,16.44
2023-03-02T02:48:23.108Z,16.42
2023-03-02T02:48:54.548Z,16.42
2023-03-02T02:49:25.938Z,16.42
2023-03-02T02:49:57.344Z,16.41
2023-03-02T02:50:28.756Z,16.42
2023-03-02T02:51:00.393Z,16.41
2023-03-02T02:51:31.919Z,16.41
2023-03-02T02:52:03.323Z,16.41
2023-03-02T02:52:34.735Z,16.41
2023-03-02T02:53:06.148Z,16.40
2023-03-02T02:53:37.564Z,16.39
2023-03-02T02:54:08.974Z,16.40
2023-03-02T02:54:40.383Z,16.39
2023-03-02T02:55:11.790Z,16.40
2023-03-02T02:55:43.141Z,16.39
2023-03-02T02:56:14.575Z,16.39
2023-03-02T02:56:45.977Z,16.39
2023-03-02T02:57:17.383Z,16.39
2023-03-02T02:57:48.797Z,16.38
2023-03-02T02:58:20.189Z,16.38
2023-03-02T02:58:51.602Z,16.37
2023-03-02T02:59:23.015Z,16.37
2023-03-02T02:59:54.412Z,16.37
2023-03-02T03:00:25.829Z,16.37
2023-03-02T03:00:57.265Z,16.36
2023-03-02T03:01:28.740Z,16.37
2023-03-02T03:02:00.171Z,16.37
2023-03-02T03:02:31.589Z,16.35
2023-03-02T03:03:03.005Z,16.37
2023-03-02T03:03:34.428Z,16.36
2023-03-02T03:04:05.889Z,16.35
2023-03-02T03:04:37.382Z,16.35
2023-03-02T03:05:08.838Z,16.35
2023-03-02T03:05:40.233Z,16.35
2023-03-02T03:06:11.648Z,16.35
2023-03-02T03:06:43.050Z,16.35
2023-03-02T03:07:14.455Z,16.33
2023-03-02T03:07:45.857Z,16.33
2023-03-02T03:08:17.248Z,16.34
2023-03-02T03:08:48.656Z,16.34
2023-03-02T03:09:20.094Z,16.34
2023-03-02T03:09:51.544Z,16.33
2023-03-02T03:10:23.013Z,16.33
2023-03-02T03:10:54.419Z,16.32
2023-03-02T03:11:25.814Z,16.33
2023-03-02T03:11:57.222Z,16.31
2023-03-02T03:12:28.639Z,16.31
2023-03-02T03:13:00.047Z,16.31
2023-03-02T03:13:31.462Z,16.31
2023-03-02T03:14:02.868Z,16.31
2023-03-02T03:14:34.258Z,16.31
2023-03-02T03:15:05.659Z,16.30
2023-03-02T03:15:37.112Z,16.30
2023-03-02T03:16:08.528Z,16.31
2023-03-02T03:16:39.968Z,16.31
2023-03-02T03:17:11.470Z,16.30
2023-03-02T03:17:42.904Z,16.30
2023-03-02T03:18:14.325Z,16.30
2023-03-02T03:18:45.753Z,16.31
2023-03-02T03:19:17.184Z,16.30
2023-03-02T03:19:48.585Z,16.30
2023-03-02T03:20:20.009Z,16.30
2023-03-02T03:20:51.431Z,16.30
2023-03-02T03:21:22.844Z,16.30
2023-03-02T03:21:54.262Z,16.29
2023-03-02T03:22:25.652Z,16.28
2023-03-02T03:22:57.062Z,16.29
2023-03-02T03:23:28.450Z,16.28
2023-03-02T03:23:59.843Z,16.28
2023-03-02T03:24:31.251Z,16.27
2023-03-02T03:25:02.650Z,16.27
2023-03-02T03:25:34.079Z,16.27
2023-03-02T03:26:05.474Z,16.27
2023-03-02T03:26:36.883Z,16.28
2023-03-02T03:27:08.334Z,16.27
2023-03-02T03:27:39.747Z,16.27
2023-03-02T03:28:11.137Z,16.27
2023-03-02T03:28:42.532Z,16.27
2023-03-02T03:29:13.950Z,16.26
2023-03-02T03:29:45.381Z,16.26
2023-03-02T03:30:16.779Z,16.27
2023-03-02T03:30:48.284Z,16.27
2023-03-02T03:31:19.839Z,16.27
2023-03-02T03:31:51.336Z,16.26
2023-03-02T03:32:22.763Z,16.26
2023-03-02T03:32:54.214Z,16.26
2023-03-02T03:33:25.617Z,16.26
2023-03-02T03:33:57.026Z,16.25
2023-03-02T03:34:28.434Z,16.25
2023-03-02T03:34:59.839Z,16.25
2023-03-02T03:35:31.294Z,16.26
2023-03-02T03:36:02.774Z,16.26
2023-03-02T03:36:34.613Z,16.26
2023-03-02T03:37:06.178Z,16.25
2023-03-02T03:37:37.593Z,16.25
2023-03-02T03:38:09.006Z,16.24
2023-03-02T03:38:40.403Z,16.25
2023-03-02T03:39:11.795Z,16.25
2023-03-02T03:39:43.230Z,16.24
2023-03-02T03:40:14.650Z,16.24
2023-03-02T03:40:46.057Z,16.24
2023-03-02T03:41:17.513Z,16.24
2023-03-02T03:41:48.919Z,16.23
2023-03-02T03:42:20.333Z,16.23
2023-03-02T03:42:51.795Z,16.23
2023-03-02T03:43:23.203Z,16.22
2023-03-02T03:43:54.610Z,16.22
2023-03-02T03:44:26.001Z,16.21
2023-03-02T03:44:57.393Z,16.22
2023-03-02T03:45:30.352Z,16.22
2023-03-02T03:46:02.025Z,16.21
2023-03-02T03:46:33.810Z,16.20
2023-03-02T03:47:05.541Z,16.21
2023-03-02T03:47:36.954Z,16.21
2023-03-02T03:48:08.367Z,16.20
2023-03-02T03:48:39.768Z,16.20
2023-03-02T03:49:11.163Z,16.19
2023-03-02T03:49:42.625Z,16.19
2023-03-02T03:50:14.053Z,16.19
2023-03-02T03:50:45.457Z,16.19
2023-03-02T03:51:16.881Z,16.21
2023-03-02T03:51:48.302Z,16.19
2023-03-02T03:52:19.696Z,16.18
2023-03-02T03:52:51.084Z,16.18
2023-03-02T03:53:22.494Z,16.19
2023-03-02T03:53:53.924Z,16.18
2023-03-02T03:54:25.349Z,16.18
2023-03-02T03:54:56.755Z,16.18
2023-03-02T03:55:28.167Z,16.17
2023-03-02T03:55:59.597Z,16.16
2023-03-02T03:56:31.292Z,16.17
2023-03-02T03:57:03.012Z,16.17
2023-03-02T03:57:34.440Z,16.17
2023-03-02T03:58:05.863Z,16.16
2023-03-02T03:58:37.345Z,16.16
2023-03-02T03:59:08.837Z,16.16
2023-03-02T03:59:40.251Z,16.16
2023-03-02T04:00:11.663Z,16.15
2023-03-02T04:00:43.076Z,16.15
2023-03-02T04:01:14.530Z,16.14
2023-03-02T04:01:46.067Z,16.15
2023-03-02T04:02:17.612Z,16.14
2023-03-02T04:02:49.097Z,16.14
2023-03-02T04:03:20.545Z,16.13
2023-03-02T04:03:52.093Z,16.14
2023-03-02T04:04:23.484Z,16.14
2023-03-02T04:04:54.880Z,16.14
2023-03-02T04:05:26.273Z,16.13
2023-03-02T04:05:57.663Z,16.13
2023-03-02T04:06:29.060Z,16.13
2023-03-02T04:07:00.507Z,16.13
2023-03-02T04:07:31.933Z,16.12
2023-03-02T04:08:03.339Z,16.13
2023-03-02T04:08:34.755Z,16.13
2023-03-02T04:09:06.150Z,16.12
2023-03-02T04:09:37.538Z,16.11
2023-03-02T04:10:08.939Z,16.11
2023-03-02T04:10:40.351Z,16.11
2023-03-02T04:11:11.743Z,16.11
2023-03-02T04:11:43.160Z,16.11
2023-03-02T04:12:14.574Z,16.12
2023-03-02T04:12:45.989Z,16.12
2023-03-02T04:13:17.378Z,16.10
2023-03-02T04:13:48.772Z,16.10
2023-03-02T04:14:20.183Z,16.11
2023-03-02T04:14:51.585Z,16.10
2023-03-02T04:15:22.977Z,16.10
2023-03-02T04:15:54.388Z,16.10
2023-03-02T04:16:25.807Z,16.09
2023-03-02T04:16:57.211Z,16.10
2023-03-02T04:17:28.635Z,16.10
2023-03-02T04:18:00.066Z,16.09
2023-03-02T04:18:31.490Z,16.10
2023-03-02T04:19:02.920Z,16.09
2023-03-02T04:19:34.339Z,16.08
2023-03-02T04:20:05.765Z,16.08
2023-03-02T04:20:37.202Z,16.08
2023-03-02T04:21:08.623Z,16.08
2023-03-02T04:21:40.040Z,16.08
2023-03-02T04:22:11.435Z,16.06
2023-03-02T04:22:42.875Z,16.07
2023-03-02T04:23:14.285Z,16.06
2023-03-02T04:23:45.693Z,16.04
2023-03-02T04:24:17.115Z,16.06
2023-03-02T04:24:48.508Z,16.04
2023-03-02T04:25:19.924Z,16.04
2023-03-02T04:25:51.319Z,16.04
2023-03-02T04:26:22.762Z,16.04
2023-03-02T04:26:54.164Z,16.03
2023-03-02T04:27:25.556Z,16.03
2023-03-02T04:27:56.985Z,16.02
2023-03-02T04:28:28.412Z,16.02
2023-03-02T04:28:59.812Z,16.01
2023-03-02T04:29:31.228Z,16.03
2023-03-02T04:30:02.625Z,16.02
2023-03-02T04:30:34.037Z,16.02
2023-03-02T04:31:05.491Z,16.01
2023-03-02T04:31:36.907Z,16.00
2023-03-02T04:32:08.406Z,16.02
2023-03-02T04:32:39.812Z,16.02
2023-03-02T04:33:11.223Z,16.00
2023-03-02T04:33:42.644Z,16.00
2023-03-02T04:34:14.047Z,16.01
2023-03-02T04:34:45.455Z,16.00
2023-03-02T04:35:16.869Z,16.01
2023-03-02T04:35:48.343Z,16.00
2023-03-02T04:36:19.785Z,16.00
2023-03-02T04:36:51.191Z,16.00
2023-03-02T04:37:22.597Z,15.99
2023-03-02T04:37:54.048Z,16.00
2023-03-02T04:38:25.466Z,15.99
2023-03-02T04:38:56.896Z,15.99
2023-03-02T04:39:28.310Z,15.99
2023-03-02T04:39:59.703Z,16.00
2023-03-02T04:40:31.117Z,16.00
2023-03-02T04:41:02.514Z,16.00
2023-03-02T04:41:33.942Z,16.00
2023-03-02T04:42:05.352Z,15.99
2023-03-02T04:42:36.757Z,16.00
2023-03-02T04:43:08.169Z,15.99
2023-03-02T04:43:39.570Z,15.99
2023-03-02T04:44:10.998Z,15.98
2023-03-02T04:44:42.391Z,15.98
2023-03-02T04:45:13.810Z,15.97
2023-03-02T04:45:45.195Z,15.97
2023-03-02T04:46:16.666Z,15.97
2023-03-02T04:46:48.118Z,15.97
2023-03-02T04:47:19.525Z,15.97
2023-03-02T04:47:51.155Z,15.97
2023-03-02T04:48:22.568Z,15.97
2023-03-02T04:48:53.958Z,15.99
2023-03-02T04:49:25.399Z,15.96
2023-03-02T04:49:56.842Z,15.98
2023-03-02T04:50:28.259Z,15.96
2023-03-02T04:50:59.659Z,15.97
2023-03-02T04:51:31.042Z,15.95
2023-03-02T04:52:02.431Z,15.96
2023-03-02T04:52:33.853Z,15.96
2023-03-02T04:53:05.292Z,15.95
2023-03-02T04:53:36.692Z,15.95
2023-03-02T04:54:08.089Z,15.95
2023-03-02T04:54:39.586Z,15.95
2023-03-02T04:55:10.987Z,15.95
2023-03-02T04:55:42.395Z,15.94
2023-03-02T04:56:13.803Z,15.94
2023-03-02T04:56:45.204Z,15.93
2023-03-02T04:57:16.622Z,15.94
2023-03-02T04:57:48.033Z,15.94
2023-03-02T04:58:19.452Z,15.93
2023-03-02T04:58:50.862Z,15.93
2023-03-02T04:59:22.317Z,15.94
2023-03-02T04:59:53.769Z,15.93
2023-03-02T05:00:25.196Z,15.93
2023-03-02T05:00:56.621Z,15.93
2023-03-02T05:01:28.032Z,15.93
2023-03-02T05:01:59.485Z,15.93
2023-03-02T05:02:30.943Z,15.92
2023-03-02T05:03:02.389Z,15.91
2023-03-02T05:03:33.791Z,15.92
2023-03-02T05:04:05.243Z,15.92
2023-03-02T05:04:36.783Z,15.91
2023-03-02T05:05:08.269Z,15.90
2023-03-02T05:05:39.664Z,15.92
2023-03-02T05:06:11.091Z,15.90
2023-03-02T05:06:42.491Z,15.91
2023-03-02T05:07:13.888Z,15.90
2023-03-02T05:07:45.288Z,15.90
2023-03-02T05:08:16.703Z,15.91
2023-03-02T05:08:48.125Z,15.90
2023-03-02T05:09:19.546Z,15.91
2023-03-02T05:09:50.944Z,15.91
2023-03-02T05:10:22.390Z,15.90
2023-03-02T05:10:53.802Z,15.90
2023-03-02T05:11:25.198Z,15.90
2023-03-02T05:11:56.643Z,15.89
2023-03-02T05:12:28.044Z,15.89
2023-03-02T05:12:59.434Z,15.88
2023-03-02T05:13:30.840Z,15.88
2023-03-02T05:14:02.240Z,15.89
2023-03-02T05:14:33.648Z,15.88
2023-03-02T05:15:05.061Z,15.89
2023-03-02T05:15:36.480Z,15.88
2023-03-02T05:16:07.918Z,15.87
2023-03-02T05:16:39.483Z,15.88
2023-03-02T05:17:10.917Z,15.88
2023-03-02T05:17:42.316Z,15.87
2023-03-02T05:18:13.726Z,15.86
2023-03-02T05:18:45.142Z,15.86
2023-03-02T05:19:16.543Z,15.86
2023-03-02T05:19:47.950Z,15.86
2023-03-02T05:20:19.338Z,15.86
2023-03-02T05:20:50.783Z,15.86
2023-03-02T05:21:22.181Z,15.85
2023-03-02T05:21:53.637Z,15.85
2023-03-02T05:22:25.060Z,15.85
2023-03-02T05:22:56.469Z,15.85
2023-03-02T05:23:27.866Z,15.85
2023-03-02T05:23:59.272Z,15.83
2023-03-02T05:24:30.677Z,15.84
2023-03-02T05:25:02.085Z,15.85
2023-03-02T05:25:33.479Z,15.85
2023-03-02T05:26:04.921Z,15.85
2023-03-02T05:26:36.319Z,15.85
2023-03-02T05:27:07.720Z,15.84
2023-03-02T05:27:39.131Z,15.84
2023-03-02T05:28:10.542Z,15.84
2023-03-02T05:28:41.946Z,15.83
2023-03-02T05:29:13.383Z,15.84
2023-03-02T05:29:44.798Z,15.83
2023-03-02T05:30:16.191Z,15.84
2023-03-02T05:30:47.614Z,15.83
2023-03-02T05:31:19.108Z,15.81
2023-03-02T05:31:50.610Z,15.82
2023-03-02T05:32:22.180Z,15.81
2023-03-02T05:32:53.652Z,15.80
2023-03-02T05:33:25.062Z,15.81
2023-03-02T05:33:56.466Z,15.80
2023-03-02T05:34:27.890Z,15.80
2023-03-02T05:34:59.315Z,15.79
2023-03-02T05:35:30.802Z,15.79
2023-03-02T05:36:02.267Z,15.78
2023-03-02T05:36:34.141Z,15.77
2023-03-02T05:37:05.726Z,15.78
2023-03-02T05:37:37.130Z,15.78
2023-03-02T05:38:08.548Z,15.78
2023-03-02T05:38:39.935Z,15.78
2023-03-02T05:39:11.334Z,15.76
2023-03-02T05:39:42.758Z,15.75
2023-03-02T05:40:14.145Z,15.76
2023-03-02T05:40:45.536Z,15.76
2023-03-02T05:41:16.927Z,15.76
2023-03-02T05:41:48.363Z,15.75
2023-03-02T05:42:19.763Z,15.75
2023-03-02T05:42:51.177Z,15.74
2023-03-02T05:43:22.582Z,15.74
2023-03-02T05:43:54.000Z,15.74
2023-03-02T05:44:25.414Z,15.73
2023-03-02T05:44:56.829Z,15.73
2023-03-02T05:45:28.232Z,15.74
2023-03-02T05:45:59.637Z,15.73
2023-03-02T05:46:31.405Z,15.73
2023-03-02T05:47:03.254Z,15.73
2023-03-02T05:47:34.666Z,15.72
2023-03-02T05:48:06.055Z,15.72
2023-03-02T05:48:37.452Z,15.72
2023-03-02T05:49:08.859Z,15.72
2023-03-02T05:49:40.265Z,15.71
2023-03-02T05:50:11.685Z,15.72
2023-03-02T05:50:43.087Z,15.71
2023-03-02T05:51:14.484Z,15.71
2023-03-02T05:51:45.919Z,15.71
2023-03-02T05:52:17.331Z,15.71
2023-03-02T05:52:48.749Z,15.72
2023-03-02T05:53:20.161Z,15.70
2023-03-02T05:53:51.572Z,15.71
2023-03-02T05:54:23.035Z,15.71
2023-03-02T05:54:54.454Z,15.72
2023-03-02T05:55:25.874Z,15.71
2023-03-02T05:55:57.271Z,15.71
2023-03-02T05:56:28.681Z,15.72
2023-03-02T05:57:00.109Z,15.72
2023-03-02T05:57:31.533Z,15.72
2023-03-02T05:58:02.953Z,15.72
2023-03-02T05:58:34.367Z,15.72
2023-03-02T05:59:05.789Z,15.71
2023-03-02T05:59:37.194Z,15.71
2023-03-02T06:00:08.596Z,15.71
2023-03-02T06:00:40.025Z,15.72
2023-03-02T06:01:13.667Z,15.72
2023-03-02T06:01:46.729Z,15.71
2023-03-02T06:02:18.211Z,15.72
2023-03-02T06:02:49.703Z,15.71
2023-03-02T06:03:21.202Z,15.71
2023-03-02T06:03:52.607Z,15.71
2023-03-02T06:04:23.997Z,15.70
2023-03-02T06:04:55.416Z,15.70
2023-03-02T06:05:26.820Z,15.69
2023-03-02T06:05:58.222Z,15.69
2023-03-02T06:06:29.626Z,15.69
2023-03-02T06:07:01.279Z,15.70
2023-03-02T06:07:32.695Z,15.68
2023-03-02T06:08:04.090Z,15.68
2023-03-02T06:08:35.504Z,15.68
2023-03-02T06:09:06.924Z,15.68
2023-03-02T06:09:38.347Z,15.68
2023-03-02T06:10:09.741Z,15.68
2023-03-02T06:10:41.151Z,15.67
2023-03-02T06:11:12.555Z,15.67
2023-03-02T06:11:43.949Z,15.67
2023-03-02T06:12:15.380Z,15.66
2023-03-02T06:12:46.810Z,15.67
2023-03-02T06:13:18.226Z,15.66
2023-03-02T06:13:49.688Z,15.66
2023-03-02T06:14:21.099Z,15.66
2023-03-02T06:14:52.505Z,15.66
2023-03-02T06:15:23.925Z,15.66
2023-03-02T06:15:55.351Z,15.67
2023-03-02T06:16:26.777Z,15.66
2023-03-02T06:16:58.211Z,15.67
2023-03-02T06:17:29.642Z,15.66
2023-03-02T06:18:01.032Z,15.66
2023-03-02T06:18:32.448Z,15.66
2023-03-02T06:19:03.868Z,15.65
2023-03-02T06:19:35.275Z,15.66
2023-03-02T06:20:06.666Z,15.65
2023-03-02T06:20:38.079Z,15.66
2023-03-02T06:21:09.497Z,15.66
2023-03-02T06:21:40.907Z,15.66
2023-03-02T06:22:12.341Z,15.66
2023-03-02T06:22:43.756Z,15.65
2023-03-02T06:23:15.165Z,15.66
2023-03-02T06:23:46.560Z,15.66
2023-03-02T06:24:17.969Z,15.66
2023-03-02T06:24:49.577Z,15.66
2023-03-02T06:25:21.019Z,15.66
2023-03-02T06:25:52.433Z,15.67
2023-03-02T06:26:23.833Z,15.66
2023-03-02T06:26:55.229Z,15.67
2023-03-02T06:27:26.689Z,15.68
2023-03-02T06:27:58.079Z,15.68
2023-03-02T06:28:29.491Z,15.67
2023-03-02T06:29:00.888Z,15.68
2023-03-02T06:29:32.354Z,15.68
2023-03-02T06:30:03.834Z,15.67
2023-03-02T06:30:35.261Z,15.69
2023-03-02T06:31:06.679Z,15.68
2023-03-02T06:31:38.147Z,15.70
2023-03-02T06:32:09.707Z,15.68
2023-03-02T06:32:41.220Z,15.70
2023-03-02T06:33:12.623Z,15.70
2023-03-02T06:33:44.018Z,15.70
2023-03-02T06:34:15.412Z,15.70
2023-03-02T06:34:46.920Z,15.71
2023-03-02T06:35:18.589Z,15.72
2023-03-02T06:35:50.179Z,15.71
2023-03-02T06:36:21.758Z,15.71
2023-03-02T06:36:53.212Z,15.72
2023-03-02T06:37:24.606Z,15.72
2023-03-02T06:37:56.037Z,15.72
2023-03-02T06:38:27.440Z,15.73
2023-03-02T06:38:58.831Z,15.73
2023-03-02T06:39:30.220Z,15.75
2023-03-02T06:40:01.668Z,15.76
2023-03-02T06:40:33.058Z,15.77
2023-03-02T06:41:04.475Z,15.78
2023-03-02T06:41:35.892Z,15.78
2023-03-02T06:42:07.294Z,15.79
2023-03-02T06:42:38.736Z,15.79
2023-03-02T06:43:10.123Z,15.80
2023-03-02T06:43:41.516Z,15.80
2023-03-02T06:44:12.931Z,15.81
2023-03-02T06:44:44.323Z,15.81